Portada
METAR-TAF:

METAR-TAF

Aeropuertos :

Aeropuerto de Hévíz-Balaton

Hévíz, Hungría

latitud: 46-41-11N, longitud: 017-09-33E, altitud: 124 m

Observación

El informe se hizo hace 48 minutos, a las 07:45 UTC
Viento 3 kt con dirección variable
Temperatura 1°C
Humedad 69%
Presión 1028 hPa
Visibilidad: 8000 m

METAR: LHSM 070745Z AUTO VRB03KT 8000 NCD 01/M04 Q1028 NOSIG

Hora: 09:33 (08:33 UTC)

Pronóstico

El informe se hizo hace 3 horas y 18 minutos, a las 05:15 UTC
Pronóstico válido del 07 a las 06 UTC al 07 a las 15 UTC
Viento 2 kt con dirección variable
Visibilidad: 8000 m
Probabilidad 30% :
Temporalmente
del 07 a las 06 UTC al 07 a las 07 UTC
Visibilidad: 4000 m
neblina
Evolucionando progresivamente
del 07 a las 06 UTC al 07 a las 09 UTC
Viento 10 kt del sur-suroeste
Visibilidad 10 km o más
sin nubes por debajo de 1500 m y sin presencia de cumulonimbus.

TAF: LHSM 070515Z 0706/0715 VRB02KT 8000 NSC PROB30 TEMPO 0706/0707 4000 BR BECMG 0706/0709 20010KT CAVOK

Observaciones y pronósticos meteorológicos de más de 4000 aeropuertos (mensajes METAR y TAF).

Los puntos amarillos y rojos representan las estaciones disponibles.

Ponga el ratón en el punto deseado para ver el nombre de la estación.

Haga clic para ver las observaciones y los pronósticos meteorológicos.

Para cambiar el mapa : haga clic en los botones verdes con una cruz de color negro para hacer un zoom, en el botón verde con un guión para alejar o en las flechas verdes para mapas adyacentes.


METAR-TAF: